createdAt,value
2023-02-21T00:00:29.129Z,95745.03
2023-02-21T00:02:56.032Z,95740.91
2023-02-21T00:05:22.831Z,95742.81
2023-02-21T00:07:52.405Z,95734.47
2023-02-21T00:10:19.061Z,95738.06
2023-02-21T00:12:45.745Z,95736.03
2023-02-21T00:15:12.353Z,95725.75
2023-02-21T00:17:39.113Z,95725.44
2023-02-21T00:20:05.909Z,95722.22
2023-02-21T00:22:32.808Z,95723.09
2023-02-21T00:24:59.373Z,95710.41
2023-02-21T00:27:26.367Z,95712.13
2023-02-21T00:29:53.004Z,95710.91
2023-02-21T00:32:19.634Z,95711.84
2023-02-21T00:34:46.333Z,95702.66
2023-02-21T00:37:12.937Z,95703.97
2023-02-21T00:39:39.574Z,95708.91
2023-02-21T00:42:06.162Z,95706.16
2023-02-21T00:44:32.795Z,95706.06
2023-02-21T00:46:59.411Z,95702.53
2023-02-21T00:49:26.076Z,95698.44
2023-02-21T00:51:53.535Z,95698.44
2023-02-21T00:54:20.137Z,95698.28
2023-02-21T00:56:46.790Z,95686.38
2023-02-21T00:59:13.400Z,95693.03
2023-02-21T01:01:40.224Z,95688.00
2023-02-21T01:04:06.925Z,95696.38
2023-02-21T01:06:33.551Z,95689.94
2023-02-21T01:09:00.164Z,95689.41
2023-02-21T01:11:27.529Z,95686.31
2023-02-21T01:13:54.208Z,95688.00
2023-02-21T01:16:20.837Z,95689.53
2023-02-21T01:18:48.831Z,95687.09
2023-02-21T01:21:18.049Z,95689.44
2023-02-21T01:23:44.661Z,95685.66
2023-02-21T01:26:11.798Z,95681.25
2023-02-21T01:28:38.461Z,95678.59
2023-02-21T01:31:05.303Z,95681.16
2023-02-21T01:33:50.076Z,95670.81
2023-02-21T01:36:16.692Z,95670.53
2023-02-21T01:38:43.325Z,95670.09
2023-02-21T01:41:10.003Z,95667.56
2023-02-21T01:43:36.628Z,95669.97
2023-02-21T01:46:03.386Z,95666.19
2023-02-21T01:48:32.599Z,95662.06
2023-02-21T01:51:00.045Z,95657.41
2023-02-21T01:53:27.674Z,95659.72
2023-02-21T01:55:57.254Z,95658.63
2023-02-21T01:58:26.888Z,95652.47
2023-02-21T02:00:53.550Z,95651.97
2023-02-21T02:03:20.781Z,95644.94
2023-02-21T02:05:56.755Z,95643.91
2023-02-21T02:08:29.123Z,95636.19
2023-02-21T02:11:16.227Z,95642.69
2023-02-21T02:14:07.644Z,95633.44
2023-02-21T02:16:56.882Z,95633.22
2023-02-21T02:20:02.687Z,95631.72
2023-02-21T02:23:06.056Z,95631.53
2023-02-21T02:25:57.236Z,95635.16
2023-02-21T02:29:00.899Z,95635.56
2023-02-21T02:31:46.323Z,95635.59
2023-02-21T02:34:24.980Z,95620.88
2023-02-21T02:37:12.115Z,95629.63
2023-02-21T02:39:55.289Z,95627.59
2023-02-21T02:43:03.256Z,95627.63
2023-02-21T02:45:51.496Z,95629.63
2023-02-21T02:48:23.263Z,95632.44
2023-02-21T02:50:53.686Z,95630.22
2023-02-21T02:53:25.763Z,95621.44
2023-02-21T02:55:58.849Z,95621.78
2023-02-21T02:58:30.746Z,95624.75
2023-02-21T03:01:06.653Z,95624.38
2023-02-21T03:03:45.964Z,95626.31
2023-02-21T03:06:33.842Z,95629.22
2023-02-21T03:09:29.835Z,95627.47
2023-02-21T03:12:43.649Z,95625.28
2023-02-21T03:15:25.956Z,95624.09
2023-02-21T03:18:09.954Z,95624.75
2023-02-21T03:20:39.864Z,95626.38
2023-02-21T03:23:08.788Z,95626.41
2023-02-21T03:25:40.022Z,95621.63
2023-02-21T03:28:06.893Z,95625.75
2023-02-21T03:30:34.521Z,95621.41
2023-02-21T03:33:01.358Z,95620.78
2023-02-21T03:35:30.110Z,95623.72
2023-02-21T03:37:58.290Z,95615.19
2023-02-21T03:40:30.797Z,95613.63
2023-02-21T03:43:01.364Z,95619.50
2023-02-21T03:45:28.014Z,95619.81
2023-02-21T03:47:54.684Z,95616.44
2023-02-21T03:50:21.417Z,95621.53
2023-02-21T03:52:48.220Z,95628.78
2023-02-21T03:55:15.075Z,95618.25
2023-02-21T03:57:41.745Z,95620.44
2023-02-21T04:00:09.186Z,95616.38
2023-02-21T04:02:35.880Z,95610.44
2023-02-21T04:05:02.864Z,95619.75
2023-02-21T04:07:29.535Z,95615.91
2023-02-21T04:09:56.247Z,95619.06
2023-02-21T04:12:22.977Z,95622.63
2023-02-21T04:14:49.691Z,95621.59
2023-02-21T04:17:16.321Z,95618.53
2023-02-21T04:19:42.945Z,95626.34
2023-02-21T04:22:09.584Z,95620.13
2023-02-21T04:24:36.188Z,95619.34
2023-02-21T04:27:02.933Z,95619.84
2023-02-21T04:29:29.624Z,95612.25
2023-02-21T04:31:56.332Z,95608.34
2023-02-21T04:34:23.182Z,95608.69
2023-02-21T04:36:49.821Z,95615.66
2023-02-21T04:39:16.800Z,95607.66
2023-02-21T04:41:43.404Z,95612.50
2023-02-21T04:44:10.045Z,95614.47
2023-02-21T04:46:36.684Z,95614.28
2023-02-21T04:49:03.380Z,95615.72
2023-02-21T04:51:30.163Z,95622.13
2023-02-21T04:53:57.012Z,95616.75
2023-02-21T04:56:26.250Z,95623.25
2023-02-21T04:58:53.117Z,95625.28
2023-02-21T05:01:20.577Z,95625.69
2023-02-21T05:03:47.992Z,95621.03
2023-02-21T05:06:23.790Z,95627.41
2023-02-21T05:08:51.153Z,95624.16
2023-02-21T05:11:19.781Z,95618.41
2023-02-21T05:13:47.854Z,95617.97
2023-02-21T05:16:15.136Z,95619.75
2023-02-21T05:18:42.968Z,95621.19
2023-02-21T05:21:09.957Z,95622.72
2023-02-21T05:23:37.040Z,95622.25
2023-02-21T05:26:06.879Z,95619.59
2023-02-21T05:28:34.184Z,95622.75
2023-02-21T05:31:01.269Z,95622.88
2023-02-21T05:33:28.698Z,95620.72
2023-02-21T05:35:56.067Z,95622.16
2023-02-21T05:38:24.261Z,95623.09
2023-02-21T05:40:50.928Z,95622.91
2023-02-21T05:43:18.116Z,95622.78
2023-02-21T05:45:45.112Z,95623.38
2023-02-21T05:48:14.647Z,95625.28
2023-02-21T05:50:41.257Z,95623.16
2023-02-21T05:53:08.080Z,95622.44
2023-02-21T05:55:34.806Z,95625.63
2023-02-21T05:58:01.404Z,95622.25
2023-02-21T06:00:30.244Z,95621.72
2023-02-21T06:02:56.954Z,95623.94
2023-02-21T06:05:23.584Z,95619.84
2023-02-21T06:07:50.368Z,95622.63
2023-02-21T06:10:18.162Z,95627.25
2023-02-21T06:12:44.789Z,95619.34
2023-02-21T06:15:11.697Z,95620.16
2023-02-21T06:17:39.196Z,95612.25
2023-02-21T06:20:07.131Z,95615.19
2023-02-21T06:22:34.151Z,95615.34
2023-02-21T06:25:00.820Z,95616.59
2023-02-21T06:27:27.498Z,95609.44
2023-02-21T06:29:54.110Z,95612.72
2023-02-21T06:32:20.750Z,95607.69
2023-02-21T06:34:47.417Z,95608.91
2023-02-21T06:37:14.052Z,95618.47
2023-02-21T06:39:40.778Z,95610.78
2023-02-21T06:42:07.408Z,95616.16
2023-02-21T06:44:34.106Z,95611.44
2023-02-21T06:47:00.724Z,95617.47
2023-02-21T06:49:27.365Z,95621.63
2023-02-21T06:51:54.020Z,95616.09
2023-02-21T06:54:20.620Z,95613.84
2023-02-21T06:56:47.384Z,95615.22
2023-02-21T06:59:15.632Z,95620.66
2023-02-21T07:01:42.252Z,95612.50
2023-02-21T07:04:08.916Z,95613.53
2023-02-21T07:06:35.585Z,95617.09
2023-02-21T07:09:02.232Z,95615.88
2023-02-21T07:11:33.364Z,95619.97
2023-02-21T07:14:00.158Z,95611.94
2023-02-21T07:16:26.858Z,95620.47
2023-02-21T07:18:54.282Z,95626.31
2023-02-21T07:21:22.015Z,95616.09
2023-02-21T07:23:49.299Z,95612.97
2023-02-21T07:26:16.056Z,95619.66
2023-02-21T07:28:43.026Z,95624.59
2023-02-21T07:31:10.254Z,95618.75
2023-02-21T07:33:36.959Z,95626.03
2023-02-21T07:36:04.116Z,95623.06
2023-02-21T07:38:32.132Z,95615.56
2023-02-21T07:41:01.553Z,95610.81
2023-02-21T07:43:30.139Z,95617.78
2023-02-21T07:45:57.501Z,95618.59
2023-02-21T07:48:25.611Z,95615.63
2023-02-21T07:50:52.331Z,95613.25
2023-02-21T07:53:19.132Z,95610.84
2023-02-21T07:55:45.774Z,95605.81
2023-02-21T07:58:12.375Z,95602.34
2023-02-21T08:00:40.478Z,95602.72
2023-02-21T08:03:07.553Z,95602.72
2023-02-21T08:05:34.211Z,95597.00
2023-02-21T08:08:01.198Z,95594.16
2023-02-21T08:10:28.227Z,95597.03
2023-02-21T08:12:55.407Z,95604.72
2023-02-21T08:15:22.060Z,95605.78
2023-02-21T08:17:50.242Z,95602.19
2023-02-21T08:20:18.103Z,95601.38
2023-02-21T08:22:45.052Z,95588.75
2023-02-21T08:25:13.552Z,95596.53
2023-02-21T08:27:41.687Z,95592.63
2023-02-21T08:30:11.106Z,95585.19
2023-02-21T08:32:37.840Z,95593.00
2023-02-21T08:35:06.740Z,95585.97
2023-02-21T08:37:33.701Z,95586.44
2023-02-21T08:40:00.331Z,95586.19
2023-02-21T08:42:26.976Z,95589.91
2023-02-21T08:44:53.725Z,95589.59
2023-02-21T08:47:20.389Z,95584.47
2023-02-21T08:49:48.369Z,95591.06
2023-02-21T08:52:16.827Z,95591.41
2023-02-21T08:54:44.783Z,95586.13
2023-02-21T08:57:12.047Z,95589.84
2023-02-21T08:59:43.139Z,95591.97
2023-02-21T09:02:22.235Z,95585.56
2023-02-21T09:04:49.215Z,95582.06
2023-02-21T09:07:17.685Z,95580.44
2023-02-21T09:09:44.409Z,95579.06
2023-02-21T09:12:11.888Z,95580.94
2023-02-21T09:14:41.472Z,95571.97
2023-02-21T09:17:11.666Z,95573.66
2023-02-21T09:19:38.864Z,95573.25
2023-02-21T09:22:08.221Z,95566.78
2023-02-21T09:24:34.883Z,95561.91
2023-02-21T09:27:01.546Z,95562.44
2023-02-21T09:29:43.836Z,95562.72
2023-02-21T09:32:12.711Z,95560.91
2023-02-21T09:34:39.331Z,95562.16
2023-02-21T09:37:06.413Z,95561.88
2023-02-21T09:39:33.056Z,95554.53
2023-02-21T09:41:59.813Z,95553.19
2023-02-21T09:44:29.250Z,95550.00
2023-02-21T09:47:05.111Z,95547.22
2023-02-21T09:49:43.018Z,95545.66
2023-02-21T09:52:31.552Z,95546.69
2023-02-21T09:55:03.594Z,95534.88
2023-02-21T09:57:30.349Z,95535.72
2023-02-21T09:59:57.195Z,95535.88
2023-02-21T10:02:54.762Z,95529.88
2023-02-21T10:05:27.168Z,95535.13
2023-02-21T10:08:00.527Z,95528.16
2023-02-21T10:10:44.681Z,95536.16
2023-02-21T10:13:11.313Z,95527.31
2023-02-21T10:16:02.343Z,95532.63
2023-02-21T10:18:45.040Z,95533.66
2023-02-21T10:21:21.449Z,95532.19
2023-02-21T10:23:51.981Z,95529.97
2023-02-21T10:26:25.150Z,95531.25
2023-02-21T10:28:56.764Z,95524.81
2023-02-21T10:31:31.548Z,95525.97
2023-02-21T10:33:58.756Z,95521.22
2023-02-21T10:36:27.966Z,95514.34
2023-02-21T10:39:16.693Z,95513.25
2023-02-21T10:41:43.765Z,95515.66
2023-02-21T10:44:15.321Z,95503.28
2023-02-21T10:47:06.722Z,95498.00
2023-02-21T10:49:49.855Z,95498.13
2023-02-21T10:52:19.122Z,95496.66
2023-02-21T10:55:32.212Z,95483.47
2023-02-21T10:58:07.670Z,95476.19
2023-02-21T11:00:43.225Z,95482.91
2023-02-21T11:03:24.441Z,95474.59
2023-02-21T11:05:55.155Z,95470.75
2023-02-21T11:08:43.721Z,95450.81
2023-02-21T11:11:11.139Z,95454.75
2023-02-21T11:13:37.904Z,95448.06
2023-02-21T11:16:21.244Z,95442.44
2023-02-21T11:19:06.003Z,95429.28
2023-02-21T11:21:33.420Z,95438.31
2023-02-21T11:24:06.474Z,95434.94
2023-02-21T11:26:53.991Z,95430.50
2023-02-21T11:29:25.480Z,95413.38
2023-02-21T11:31:53.877Z,95423.38
2023-02-21T11:34:20.691Z,95412.38
2023-02-21T11:36:48.685Z,95416.97
2023-02-21T11:39:18.403Z,95410.44
2023-02-21T11:41:51.852Z,95400.38
2023-02-21T11:44:33.657Z,95407.16
2023-02-21T11:47:15.229Z,95395.28
2023-02-21T11:49:54.327Z,95379.03
2023-02-21T11:52:28.039Z,95381.16
2023-02-21T11:54:54.905Z,95369.25
2023-02-21T11:57:34.958Z,95375.34
2023-02-21T12:00:24.656Z,95370.63
2023-02-21T12:03:19.472Z,95360.28
2023-02-21T12:05:46.072Z,95360.50
2023-02-21T12:08:30.273Z,95356.00
2023-02-21T12:11:17.289Z,95349.56
2023-02-21T12:13:50.208Z,95343.34
2023-02-21T12:16:34.586Z,95333.16
2023-02-21T12:19:02.234Z,95327.28
2023-02-21T12:21:39.955Z,95324.88
2023-02-21T12:24:27.913Z,95321.28
2023-02-21T12:27:15.951Z,95322.81
2023-02-21T12:29:57.390Z,95312.88
2023-02-21T12:32:29.628Z,95314.94
2023-02-21T12:35:27.811Z,95308.44
2023-02-21T12:38:03.313Z,95308.69
2023-02-21T12:41:23.737Z,95303.00
2023-02-21T12:44:18.857Z,95297.66
2023-02-21T12:46:54.519Z,95296.38
2023-02-21T12:49:42.237Z,95294.19
2023-02-21T12:52:16.785Z,95292.38
2023-02-21T12:54:58.893Z,95287.25
2023-02-21T12:58:02.470Z,95280.06
2023-02-21T13:00:38.580Z,95279.22
2023-02-21T13:03:34.427Z,95277.53
2023-02-21T13:06:32.836Z,95269.69
2023-02-21T13:09:05.573Z,95264.38
2023-02-21T13:11:53.970Z,95261.34
2023-02-21T13:14:32.420Z,95260.16
2023-02-21T13:16:59.157Z,95255.56
2023-02-21T13:19:41.980Z,95249.63
2023-02-21T13:22:45.725Z,95247.72
2023-02-21T13:25:12.358Z,95242.63
2023-02-21T13:27:54.048Z,95236.81
2023-02-21T13:30:29.053Z,95237.84
2023-02-21T13:32:59.545Z,95238.34
2023-02-21T13:35:38.543Z,95227.81
2023-02-21T13:38:08.619Z,95234.66
2023-02-21T13:41:02.142Z,95223.84
2023-02-21T13:43:33.251Z,95215.16
2023-02-21T13:46:24.776Z,95212.88
2023-02-21T13:49:29.505Z,95211.63
2023-02-21T13:52:34.233Z,95198.59
2023-02-21T13:55:13.032Z,95201.41
2023-02-21T13:57:48.325Z,95201.06
2023-02-21T14:00:21.221Z,95200.13
2023-02-21T14:03:06.767Z,95190.34
2023-02-21T14:05:48.576Z,95201.91
2023-02-21T14:08:28.580Z,95194.94
2023-02-21T14:11:18.548Z,95193.28
2023-02-21T14:13:52.084Z,95174.69
2023-02-21T14:16:23.978Z,95188.00
2023-02-21T14:19:11.277Z,95180.38
2023-02-21T14:21:45.841Z,95179.50
2023-02-21T14:24:22.091Z,95172.88
2023-02-21T14:26:51.778Z,95170.94
2023-02-21T14:29:39.455Z,95164.81
2023-02-21T14:32:09.102Z,95170.84
2023-02-21T14:34:47.982Z,95161.03
2023-02-21T14:37:44.425Z,95163.28
2023-02-21T14:40:34.288Z,95157.13
2023-02-21T14:43:18.412Z,95154.66
2023-02-21T14:46:12.852Z,95158.56
2023-02-21T14:49:01.384Z,95149.50
2023-02-21T14:51:55.908Z,95151.69
2023-02-21T14:54:44.540Z,95143.59
2023-02-21T14:57:33.315Z,95141.03
2023-02-21T15:00:17.903Z,95143.97
2023-02-21T15:03:19.580Z,95141.50
2023-02-21T15:06:09.472Z,95142.22
2023-02-21T15:08:45.985Z,95140.78
2023-02-21T15:11:40.315Z,95134.94
2023-02-21T15:14:21.021Z,95131.63
2023-02-21T15:16:49.358Z,95135.50
2023-02-21T15:19:27.153Z,95133.78
2023-02-21T15:22:25.133Z,95122.44
2023-02-21T15:25:10.270Z,95123.69
2023-02-21T15:27:53.625Z,95118.16
2023-02-21T15:30:21.790Z,95111.84
2023-02-21T15:33:00.131Z,95116.47
2023-02-21T15:35:33.125Z,95109.22
2023-02-21T15:38:33.195Z,95111.88
2023-02-21T15:41:09.827Z,95104.25
2023-02-21T15:44:12.475Z,95112.00
2023-02-21T15:47:14.077Z,95105.06
2023-02-21T15:49:42.869Z,95103.28
2023-02-21T15:52:41.017Z,95103.44
2023-02-21T15:55:19.365Z,95108.81
2023-02-21T15:57:57.221Z,95098.94
2023-02-21T16:00:35.721Z,95102.19
2023-02-21T16:03:40.468Z,95101.28
2023-02-21T16:06:13.221Z,95104.63
2023-02-21T16:08:52.606Z,95107.22
2023-02-21T16:11:19.876Z,95107.59
2023-02-21T16:13:47.481Z,95105.50
2023-02-21T16:16:14.381Z,95108.38
2023-02-21T16:18:41.462Z,95104.28
2023-02-21T16:21:23.199Z,95104.56
2023-02-21T16:23:49.902Z,95104.56
2023-02-21T16:26:16.516Z,95100.47
2023-02-21T16:28:44.755Z,95106.81
2023-02-21T16:31:29.701Z,95107.22
2023-02-21T16:33:57.343Z,95089.84
2023-02-21T16:36:29.803Z,95091.25
2023-02-21T16:38:58.217Z,95090.91
2023-02-21T16:41:25.361Z,95085.56
2023-02-21T16:43:52.168Z,95095.28
2023-02-21T16:46:29.797Z,95088.66
2023-02-21T16:48:57.878Z,95080.94
2023-02-21T16:51:24.501Z,95084.97
2023-02-21T16:53:51.143Z,95076.03
2023-02-21T16:56:18.092Z,95086.47
2023-02-21T16:58:50.294Z,95089.38
2023-02-21T17:01:31.009Z,95085.50
2023-02-21T17:03:58.189Z,95082.53
2023-02-21T17:06:28.687Z,95076.34
2023-02-21T17:08:56.620Z,95091.38
2023-02-21T17:11:23.259Z,95099.94
2023-02-21T17:13:49.884Z,95090.25
2023-02-21T17:16:17.342Z,95083.22
2023-02-21T17:18:45.243Z,95092.66
2023-02-21T17:21:12.213Z,95096.25
2023-02-21T17:23:38.931Z,95100.66
2023-02-21T17:26:05.523Z,95099.41
2023-02-21T17:28:32.207Z,95098.84
2023-02-21T17:30:58.859Z,95104.22
2023-02-21T17:33:25.502Z,95108.56
2023-02-21T17:35:54.916Z,95112.19
2023-02-21T17:38:21.543Z,95111.47
2023-02-21T17:40:48.189Z,95116.19
2023-02-21T17:43:16.425Z,95122.69
2023-02-21T17:45:43.123Z,95129.56
2023-02-21T17:48:09.717Z,95127.00
2023-02-21T17:50:37.464Z,95131.91
2023-02-21T17:53:06.288Z,95133.03
2023-02-21T17:55:34.021Z,95132.28
2023-02-21T17:58:00.707Z,95138.28
2023-02-21T18:00:29.034Z,95129.00
2023-02-21T18:02:56.416Z,95134.84
2023-02-21T18:05:23.163Z,95137.38
2023-02-21T18:07:51.961Z,95142.38
2023-02-21T18:10:22.433Z,95141.00
2023-02-21T18:12:51.292Z,95139.19
2023-02-21T18:15:23.464Z,95144.50
2023-02-21T18:17:50.212Z,95138.16
2023-02-21T18:20:17.315Z,95139.91
2023-02-21T18:22:44.432Z,95144.34
2023-02-21T18:25:12.422Z,95138.00
2023-02-21T18:27:39.039Z,95144.09
2023-02-21T18:30:07.076Z,95148.72
2023-02-21T18:32:33.824Z,95141.59
2023-02-21T18:35:00.521Z,95140.31
2023-02-21T18:37:27.323Z,95143.44
2023-02-21T18:39:55.542Z,95144.50
2023-02-21T18:42:23.393Z,95141.97
2023-02-21T18:44:51.729Z,95148.59
2023-02-21T18:47:19.140Z,95140.72
2023-02-21T18:49:48.545Z,95139.59
2023-02-21T18:52:16.420Z,95135.59
2023-02-21T18:54:45.246Z,95139.03
2023-02-21T18:57:12.561Z,95138.41
2023-02-21T18:59:39.505Z,95142.75
2023-02-21T19:02:06.563Z,95136.13
2023-02-21T19:04:33.728Z,95136.72
2023-02-21T19:07:06.694Z,95145.97
2023-02-21T19:09:33.609Z,95144.94
2023-02-21T19:12:00.282Z,95148.78
2023-02-21T19:14:26.936Z,95143.63
2023-02-21T19:16:53.649Z,95146.53
2023-02-21T19:19:20.420Z,95142.88
2023-02-21T19:21:47.105Z,95148.28
2023-02-21T19:24:13.708Z,95136.25
2023-02-21T19:26:40.579Z,95138.59
2023-02-21T19:29:07.287Z,95144.81
2023-02-21T19:31:34.234Z,95144.88
2023-02-21T19:34:01.033Z,95141.50
2023-02-21T19:36:27.783Z,95147.09
2023-02-21T19:38:54.473Z,95147.47
2023-02-21T19:41:21.741Z,95148.28
2023-02-21T19:43:48.345Z,95146.50
2023-02-21T19:46:23.897Z,95145.84
2023-02-21T19:48:51.272Z,95149.69
2023-02-21T19:51:21.280Z,95152.63
2023-02-21T19:53:48.401Z,95158.78
2023-02-21T19:56:15.508Z,95146.88
2023-02-21T19:58:43.880Z,95147.44
2023-02-21T20:01:11.714Z,95153.19
2023-02-21T20:03:38.355Z,95149.16
2023-02-21T20:06:05.204Z,95157.22
2023-02-21T20:08:31.957Z,95146.97
2023-02-21T20:10:58.870Z,95154.44
2023-02-21T20:13:25.509Z,95154.22
2023-02-21T20:15:52.133Z,95152.94
2023-02-21T20:18:18.798Z,95156.59
2023-02-21T20:20:45.460Z,95151.03
2023-02-21T20:23:12.186Z,95151.63
2023-02-21T20:25:39.203Z,95151.91
2023-02-21T20:28:05.912Z,95152.47
2023-02-21T20:30:33.510Z,95148.63
2023-02-21T20:33:00.209Z,95149.22
2023-02-21T20:35:27.324Z,95149.69
2023-02-21T20:37:54.003Z,95147.47
2023-02-21T20:40:20.842Z,95144.31
2023-02-21T20:42:47.540Z,95149.81
2023-02-21T20:45:15.012Z,95146.00
2023-02-21T20:47:41.766Z,95149.13
2023-02-21T20:50:08.761Z,95143.44
2023-02-21T20:52:35.513Z,95144.78
2023-02-21T20:55:03.693Z,95143.81
2023-02-21T20:57:30.545Z,95134.03
2023-02-21T21:00:00.150Z,95138.44
2023-02-21T21:02:30.006Z,95136.16
2023-02-21T21:04:56.679Z,95139.63
2023-02-21T21:07:23.359Z,95127.56
2023-02-21T21:09:51.051Z,95138.69
2023-02-21T21:12:21.538Z,95137.81
2023-02-21T21:14:50.471Z,95141.72
2023-02-21T21:17:19.750Z,95135.28
2023-02-21T21:19:48.698Z,95135.13
2023-02-21T21:22:20.556Z,95136.72
2023-02-21T21:24:47.716Z,95133.00
2023-02-21T21:27:14.346Z,95141.56
2023-02-21T21:29:45.168Z,95139.19
2023-02-21T21:32:15.771Z,95133.91
2023-02-21T21:34:54.933Z,95136.88
2023-02-21T21:37:27.411Z,95140.56
2023-02-21T21:39:56.132Z,95135.56
2023-02-21T21:42:28.849Z,95128.56
2023-02-21T21:44:57.040Z,95130.88
2023-02-21T21:47:26.884Z,95124.41
2023-02-21T21:49:54.036Z,95115.78
2023-02-21T21:52:21.872Z,95113.59
2023-02-21T21:54:48.563Z,95116.09
2023-02-21T21:57:17.489Z,95104.50
2023-02-21T21:59:48.274Z,95119.59
2023-02-21T22:02:14.897Z,95108.59
2023-02-21T22:04:41.660Z,95110.09
2023-02-21T22:07:09.721Z,95107.56
2023-02-21T22:09:36.674Z,95108.31
2023-02-21T22:12:05.497Z,95112.66
2023-02-21T22:14:32.186Z,95117.66
2023-02-21T22:16:58.830Z,95110.22
2023-02-21T22:19:28.531Z,95112.19
2023-02-21T22:21:55.446Z,95109.75
2023-02-21T22:24:24.534Z,95110.47
2023-02-21T22:26:55.497Z,95097.09
2023-02-21T22:29:22.941Z,95107.78
2023-02-21T22:31:52.141Z,95103.81
2023-02-21T22:34:19.769Z,95103.25
2023-02-21T22:36:46.429Z,95100.91
2023-02-21T22:39:13.168Z,95104.06
2023-02-21T22:41:39.855Z,95101.38
2023-02-21T22:44:06.511Z,95100.28
2023-02-21T22:46:49.927Z,95101.59
2023-02-21T22:49:16.633Z,95099.09
2023-02-21T22:51:44.290Z,95095.22
2023-02-21T22:54:12.812Z,95097.38
2023-02-21T22:56:39.914Z,95083.75
2023-02-21T22:59:06.547Z,95082.28
2023-02-21T23:01:33.914Z,95084.88
2023-02-21T23:04:00.535Z,95078.03
2023-02-21T23:06:27.150Z,95091.25
2023-02-21T23:08:53.762Z,95088.88
2023-02-21T23:11:22.626Z,95083.56
2023-02-21T23:13:49.664Z,95087.22
2023-02-21T23:16:20.663Z,95087.03
2023-02-21T23:18:47.396Z,95087.31
2023-02-21T23:21:14.209Z,95077.97
2023-02-21T23:23:41.054Z,95078.56
2023-02-21T23:26:07.789Z,95079.22
2023-02-21T23:28:34.720Z,95078.50
2023-02-21T23:31:01.503Z,95070.63
2023-02-21T23:33:30.546Z,95071.97
2023-02-21T23:35:57.986Z,95077.34
2023-02-21T23:38:27.321Z,95075.19
2023-02-21T23:40:56.915Z,95074.75
2023-02-21T23:43:29.883Z,95070.28
2023-02-21T23:45:58.640Z,95073.88
2023-02-21T23:48:26.564Z,95075.06
2023-02-21T23:50:53.197Z,95073.38
2023-02-21T23:53:22.243Z,95071.63
2023-02-21T23:55:50.261Z,95070.84
2023-02-21T23:58:18.985Z,95067.69
